Jericho, VT (05465)

10:25 AM EDT on May 05, 2015 (GMT -0400)
APRSWXNET | | Change Station
CLOSE
Current Station
Personal Weather Station
Location: Jericho, VT
Elevation: 826 ft
Nearby Weather Stations
Active Advisory: Special Statement

Elev 826 ft 44.45 °N, 72.93 °W | Updated 32 minutes ago

Partly Cloudy
Partly Cloudy
60 °F
Feels Like 60 °F
N
0
Wind Variable Wind from NNW
Gusts 7.0 mph

Today
High -- | Low -- °F
--% Chance of Precip.
Yesterday
High -- | Low -- °F
Precip. -- in
5:37 AM 8:00 PM
Full, 98% visible
Pressure 30.27 in
Visibility 10.0 miles
Clouds Few 4500 ft
Mostly Cloudy 25000 ft
Dew Point 47 °F
Humidity 63%
Rainfall in
Snow Depth Not available.
UV 3 out of 12
Pollen 9.50 out of 12
Air Quality Not available.
Flu Activity Regional
METAR KBTV 051354Z 35005KT 10SM FEW045 BKN250 16/06 A3027 RMK AO2 SLP250 T01610056

More Conditions Fewer Conditions

Pressure 30.27 in
Visibility 10.0 miles
Clouds Few 4500 ft
Mostly Cloudy 25000 ft
Dew Point 47 °F
Humidity 63%
Rainfall in
Snow Depth Not available.
UV 3 out of 12
Pollen 9.50 out of 12
Air Quality Not available.
Flu Activity Regional
METAR KBTV 051354Z 35005KT 10SM FEW045 BKN250 16/06 A3027 RMK AO2 SLP250 T01610056

More Conditions Fewer Conditions

10-Day Weather Forecast

Almanac

Astronomy

May. 05, 2015 Rise Set
Actual Time
Civil Twilight
Nautical Twilight
Astronomical Twilight
Moon
Length of Visible Light
Length of Day
Tomorrow will be .
, % of the Moon is Illuminated

Today's Extremes

State Highs State Lows

Community

WunderPhotos

Upload Photos

1,818,903 photos uploaded!

WunderBlogs® & News

Nearby

Air Quality

  Air Quality AQ Index Pollutant
Not available.

Snow Depth

Station Depth Elevation

Earthquake Activity

City Distance Mag. Time & Date
Minimum magnitude displayed is 2.5.

Coastal Water Temperatures

Place Temperature

Stations

Nearby Weather Stations

Station Location Temp. Windchill Dew Point Humidity Wind Precip. Elev Updated Type
                   
Special Statement
Statement as of 8:47 AM EDT on May 05, 2015

... Dry fuels and low relative humidities will increase fire weather
concerns this afternoon...

With little to no recent rain... fine fuels remain very dry according
to the Vermont department of Forest... Parks... and recreation. This
combined with minimum relative humidity values between 20 and 30
percent and northwest winds from 10 to 18 mph will increase fire
concerns today.

Given the expected weather conditions... any fires that do occur
could burn intensely and be difficult to contain. Caution should be
used if any open burning is planned.

Please stay tuned to NOAA Weather Radio... your local media... or
go to www.Weather.Gov/Burlington for further updates and
potential red flag warnings on this fire weather situation.


Muccilli